Terminal Aerodrome Forecast
Issued by NWS

Home | Current Version | Previous Version | Text Only | Print | Product List | Glossary On
Versions: 1 2 3 4 5 6 7 8 9 10 11 12 13
000
FTUS46 KLOX 201700
TAFWJF
TAF
KWJF 201727Z 2018/2118 VRB03KT P6SM SKC
     FM202100 25007KT P6SM SCT250
     FM202300 23015G20KT P6SM BKN250
     FM210400 24010KT P6SM SKC
     FM211000 VRB03KT P6SM SKC=

USA.gov is the U.S. government's official web portal to all federal, state and local government web resources and services.